sensor_id;sensor_type;location;lat;lon;timestamp;temperature;humidity
32095;DHT22;18608;53.688;10.748;2023-01-28T00:01:57;1.80;99.90
32095;DHT22;18608;53.688;10.748;2023-01-28T00:04:23;1.80;99.90
32095;DHT22;18608;53.688;10.748;2023-01-28T00:06:48;1.90;99.90
32095;DHT22;18608;53.688;10.748;2023-01-28T00:09:14;2.00;99.90
32095;DHT22;18608;53.688;10.748;2023-01-28T00:11:40;1.90;99.90
32095;DHT22;18608;53.688;10.748;2023-01-28T00:14:06;1.90;99.90
32095;DHT22;18608;53.688;10.748;2023-01-28T00:16:32;1.60;99.90
32095;DHT22;18608;53.688;10.748;2023-01-28T00:18:58;1.60;99.90
32095;DHT22;18608;53.688;10.748;2023-01-28T00:21:24;1.50;99.90
32095;DHT22;18608;53.688;10.748;2023-01-28T00:23:52;1.50;99.90
32095;DHT22;18608;53.688;10.748;2023-01-28T00:26:19;1.50;99.90
32095;DHT22;18608;53.688;10.748;2023-01-28T00:28:45;1.60;99.90
32095;DHT22;18608;53.688;10.748;2023-01-28T00:31:17;1.80;99.90
32095;DHT22;18608;53.688;10.748;2023-01-28T00:33:46;1.90;99.90
32095;DHT22;18608;53.688;10.748;2023-01-28T00:36:13;1.90;99.90
32095;DHT22;18608;53.688;10.748;2023-01-28T00:38:39;1.80;99.90
32095;DHT22;18608;53.688;10.748;2023-01-28T00:41:15;1.50;99.90
32095;DHT22;18608;53.688;10.748;2023-01-28T00:43:41;1.30;99.90
32095;DHT22;18608;53.688;10.748;2023-01-28T00:46:08;1.20;99.90
32095;DHT22;18608;53.688;10.748;2023-01-28T00:48:35;1.30;99.90
32095;DHT22;18608;53.688;10.748;2023-01-28T00:51:02;1.50;99.90
32095;DHT22;18608;53.688;10.748;2023-01-28T00:53:28;1.60;99.90
32095;DHT22;18608;53.688;10.748;2023-01-28T00:55:54;0.40;99.90
32095;DHT22;18608;53.688;10.748;2023-01-28T00:58:20;1.90;99.90
32095;DHT22;18608;53.688;10.748;2023-01-28T01:00:47;1.80;99.90
32095;DHT22;18608;53.688;10.748;2023-01-28T01:03:12;1.80;99.90
32095;DHT22;18608;53.688;10.748;2023-01-28T01:05:38;1.70;99.90
32095;DHT22;18608;53.688;10.748;2023-01-28T01:08:04;1.80;99.90
32095;DHT22;18608;53.688;10.748;2023-01-28T01:10:29;1.70;99.90
32095;DHT22;18608;53.688;10.748;2023-01-28T01:12:55;1.60;99.90
32095;DHT22;18608;53.688;10.748;2023-01-28T01:15:22;1.50;99.90
32095;DHT22;18608;53.688;10.748;2023-01-28T01:17:48;1.30;99.90
32095;DHT22;18608;53.688;10.748;2023-01-28T01:20:18;1.30;99.90
32095;DHT22;18608;53.688;10.748;2023-01-28T01:22:44;1.30;99.90
32095;DHT22;18608;53.688;10.748;2023-01-28T01:25:12;1.30;99.90
32095;DHT22;18608;53.688;10.748;2023-01-28T01:27:38;1.50;99.90
32095;DHT22;18608;53.688;10.748;2023-01-28T01:30:05;1.70;99.90
32095;DHT22;18608;53.688;10.748;2023-01-28T01:32:31;1.70;99.90
32095;DHT22;18608;53.688;10.748;2023-01-28T01:34:59;1.80;99.90
32095;DHT22;18608;53.688;10.748;2023-01-28T01:37:25;1.70;99.90
32095;DHT22;18608;53.688;10.748;2023-01-28T01:39:51;1.60;99.90
32095;DHT22;18608;53.688;10.748;2023-01-28T01:42:16;1.50;99.90
32095;DHT22;18608;53.688;10.748;2023-01-28T01:47:51;1.50;99.90
32095;DHT22;18608;53.688;10.748;2023-01-28T01:50:27;1.40;99.90
32095;DHT22;18608;53.688;10.748;2023-01-28T01:52:58;1.30;99.90
32095;DHT22;18608;53.688;10.748;2023-01-28T01:55:26;1.30;99.90
32095;DHT22;18608;53.688;10.748;2023-01-28T01:57:55;1.30;99.90
32095;DHT22;18608;53.688;10.748;2023-01-28T02:00:23;1.40;99.90
32095;DHT22;18608;53.688;10.748;2023-01-28T02:02:49;1.40;99.90
32095;DHT22;18608;53.688;10.748;2023-01-28T02:05:18;-0.10;99.90
32095;DHT22;18608;53.688;10.748;2023-01-28T02:07:47;1.50;99.90
32095;DHT22;18608;53.688;10.748;2023-01-28T02:10:13;1.50;99.90
32095;DHT22;18608;53.688;10.748;2023-01-28T02:12:42;1.60;99.90
32095;DHT22;18608;53.688;10.748;2023-01-28T02:15:13;1.70;99.90
32095;DHT22;18608;53.688;10.748;2023-01-28T02:17:41;1.60;99.90
32095;DHT22;18608;53.688;10.748;2023-01-28T02:20:13;1.60;99.90
32095;DHT22;18608;53.688;10.748;2023-01-28T02:29:07;1.80;99.90
32095;DHT22;18608;53.688;10.748;2023-01-28T02:31:53;1.90;99.90
32095;DHT22;18608;53.688;10.748;2023-01-28T02:37:14;2.00;99.90
32095;DHT22;18608;53.688;10.748;2023-01-28T02:39:44;2.00;99.90
32095;DHT22;18608;53.688;10.748;2023-01-28T02:42:26;2.00;99.90
32095;DHT22;18608;53.688;10.748;2023-01-28T02:44:53;2.10;99.90
32095;DHT22;18608;53.688;10.748;2023-01-28T02:47:18;2.10;99.90
32095;DHT22;18608;53.688;10.748;2023-01-28T02:50:14;2.20;99.90
32095;DHT22;18608;53.688;10.748;2023-01-28T02:53:34;2.20;99.90
32095;DHT22;18608;53.688;10.748;2023-01-28T02:56:04;2.20;99.90
32095;DHT22;18608;53.688;10.748;2023-01-28T03:05:05;2.10;99.90
32095;DHT22;18608;53.688;10.748;2023-01-28T03:07:34;2.20;99.90
32095;DHT22;18608;53.688;10.748;2023-01-28T03:10:02;2.20;99.90
32095;DHT22;18608;53.688;10.748;2023-01-28T03:12:31;2.10;99.90
32095;DHT22;18608;53.688;10.748;2023-01-28T03:15:21;2.10;99.90
32095;DHT22;18608;53.688;10.748;2023-01-28T03:18:29;2.20;99.90
32095;DHT22;18608;53.688;10.748;2023-01-28T03:21:24;2.20;99.90
32095;DHT22;18608;53.688;10.748;2023-01-28T03:24:41;2.20;99.90
32095;DHT22;18608;53.688;10.748;2023-01-28T03:30:26;2.10;99.90
32095;DHT22;18608;53.688;10.748;2023-01-28T03:33:13;2.20;99.90
32095;DHT22;18608;53.688;10.748;2023-01-28T03:35:58;2.20;99.90
32095;DHT22;18608;53.688;10.748;2023-01-28T03:38:42;2.20;99.90
32095;DHT22;18608;53.688;10.748;2023-01-28T03:41:18;2.20;99.90
32095;DHT22;18608;53.688;10.748;2023-01-28T03:43:44;2.20;99.90
32095;DHT22;18608;53.688;10.748;2023-01-28T03:46:10;2.20;99.90
32095;DHT22;18608;53.688;10.748;2023-01-28T03:48:35;2.10;99.90
32095;DHT22;18608;53.688;10.748;2023-01-28T03:51:01;2.10;99.90
32095;DHT22;18608;53.688;10.748;2023-01-28T03:53:26;1.90;99.90
32095;DHT22;18608;53.688;10.748;2023-01-28T03:55:53;1.70;99.90
32095;DHT22;18608;53.688;10.748;2023-01-28T03:58:21;1.70;99.90
32095;DHT22;18608;53.688;10.748;2023-01-28T04:00:47;1.70;99.90
32095;DHT22;18608;53.688;10.748;2023-01-28T04:03:15;1.70;99.90
32095;DHT22;18608;53.688;10.748;2023-01-28T04:06:02;1.60;99.90
32095;DHT22;18608;53.688;10.748;2023-01-28T04:08:27;1.50;99.90
32095;DHT22;18608;53.688;10.748;2023-01-28T04:10:53;1.50;99.90
32095;DHT22;18608;53.688;10.748;2023-01-28T04:13:19;1.50;99.90
32095;DHT22;18608;53.688;10.748;2023-01-28T04:15:45;1.60;99.90
32095;DHT22;18608;53.688;10.748;2023-01-28T04:18:11;1.40;99.90
32095;DHT22;18608;53.688;10.748;2023-01-28T04:20:37;1.40;99.90
32095;DHT22;18608;53.688;10.748;2023-01-28T04:23:04;1.40;99.90
32095;DHT22;18608;53.688;10.748;2023-01-28T04:25:30;1.50;99.90
32095;DHT22;18608;53.688;10.748;2023-01-28T04:27:56;1.30;99.90
32095;DHT22;18608;53.688;10.748;2023-01-28T04:30:22;1.30;99.90
32095;DHT22;18608;53.688;10.748;2023-01-28T04:32:48;1.40;99.90
32095;DHT22;18608;53.688;10.748;2023-01-28T04:35:17;1.40;99.90
32095;DHT22;18608;53.688;10.748;2023-01-28T04:37:43;1.30;99.90
32095;DHT22;18608;53.688;10.748;2023-01-28T04:40:10;1.40;99.90
32095;DHT22;18608;53.688;10.748;2023-01-28T04:42:36;1.30;99.90
32095;DHT22;18608;53.688;10.748;2023-01-28T04:45:02;1.40;99.90
32095;DHT22;18608;53.688;10.748;2023-01-28T04:47:28;1.40;99.90
32095;DHT22;18608;53.688;10.748;2023-01-28T04:49:53;1.30;99.90
32095;DHT22;18608;53.688;10.748;2023-01-28T04:52:19;1.20;99.90
32095;DHT22;18608;53.688;10.748;2023-01-28T04:54:44;1.10;99.90
32095;DHT22;18608;53.688;10.748;2023-01-28T04:57:10;1.00;99.90
32095;DHT22;18608;53.688;10.748;2023-01-28T04:59:36;1.00;99.90
32095;DHT22;18608;53.688;10.748;2023-01-28T05:02:02;1.00;99.90
32095;DHT22;18608;53.688;10.748;2023-01-28T05:04:27;0.90;99.90
32095;DHT22;18608;53.688;10.748;2023-01-28T05:06:53;0.90;99.90
32095;DHT22;18608;53.688;10.748;2023-01-28T05:09:18;1.00;99.90
32095;DHT22;18608;53.688;10.748;2023-01-28T05:11:44;1.10;99.90
32095;DHT22;18608;53.688;10.748;2023-01-28T05:14:10;1.00;99.90
32095;DHT22;18608;53.688;10.748;2023-01-28T05:16:35;1.10;99.90
32095;DHT22;18608;53.688;10.748;2023-01-28T05:19:01;1.00;99.90
32095;DHT22;18608;53.688;10.748;2023-01-28T05:21:27;1.10;99.90
32095;DHT22;18608;53.688;10.748;2023-01-28T05:23:53;1.00;99.90
32095;DHT22;18608;53.688;10.748;2023-01-28T05:26:19;0.90;99.90
32095;DHT22;18608;53.688;10.748;2023-01-28T05:28:44;1.00;99.90
32095;DHT22;18608;53.688;10.748;2023-01-28T05:31:10;1.10;99.90
32095;DHT22;18608;53.688;10.748;2023-01-28T05:33:36;1.00;99.90
32095;DHT22;18608;53.688;10.748;2023-01-28T05:36:02;1.30;99.90
32095;DHT22;18608;53.688;10.748;2023-01-28T05:38:27;1.10;99.90
32095;DHT22;18608;53.688;10.748;2023-01-28T05:40:53;1.10;99.90
32095;DHT22;18608;53.688;10.748;2023-01-28T05:43:18;1.10;99.90
32095;DHT22;18608;53.688;10.748;2023-01-28T05:45:44;1.20;99.90
32095;DHT22;18608;53.688;10.748;2023-01-28T05:48:12;1.00;99.90
32095;DHT22;18608;53.688;10.748;2023-01-28T05:50:38;1.10;99.90
32095;DHT22;18608;53.688;10.748;2023-01-28T05:53:05;1.10;99.90
32095;DHT22;18608;53.688;10.748;2023-01-28T05:55:30;1.20;99.90
32095;DHT22;18608;53.688;10.748;2023-01-28T05:57:56;1.20;99.90
32095;DHT22;18608;53.688;10.748;2023-01-28T06:00:22;1.20;99.90
32095;DHT22;18608;53.688;10.748;2023-01-28T06:02:50;1.20;99.90
32095;DHT22;18608;53.688;10.748;2023-01-28T06:05:16;1.20;99.90
32095;DHT22;18608;53.688;10.748;2023-01-28T06:07:44;1.10;99.90
32095;DHT22;18608;53.688;10.748;2023-01-28T06:10:10;1.10;99.90
32095;DHT22;18608;53.688;10.748;2023-01-28T06:12:36;1.00;99.90
32095;DHT22;18608;53.688;10.748;2023-01-28T06:15:01;1.00;99.90
32095;DHT22;18608;53.688;10.748;2023-01-28T06:17:27;1.10;99.90
32095;DHT22;18608;53.688;10.748;2023-01-28T06:19:52;1.00;99.90
32095;DHT22;18608;53.688;10.748;2023-01-28T06:22:19;1.00;99.90
32095;DHT22;18608;53.688;10.748;2023-01-28T06:24:45;1.00;99.90
32095;DHT22;18608;53.688;10.748;2023-01-28T06:27:10;1.00;99.90
32095;DHT22;18608;53.688;10.748;2023-01-28T06:29:36;1.10;99.90
32095;DHT22;18608;53.688;10.748;2023-01-28T06:32:01;1.10;99.90
32095;DHT22;18608;53.688;10.748;2023-01-28T06:34:27;1.00;99.90
32095;DHT22;18608;53.688;10.748;2023-01-28T06:36:53;1.10;99.90
32095;DHT22;18608;53.688;10.748;2023-01-28T06:39:19;0.90;99.90
32095;DHT22;18608;53.688;10.748;2023-01-28T06:41:46;0.90;99.90
32095;DHT22;18608;53.688;10.748;2023-01-28T06:44:12;0.60;99.90
32095;DHT22;18608;53.688;10.748;2023-01-28T06:46:37;0.50;99.90
32095;DHT22;18608;53.688;10.748;2023-01-28T06:49:03;0.40;99.90
32095;DHT22;18608;53.688;10.748;2023-01-28T06:51:28;0.50;99.90
32095;DHT22;18608;53.688;10.748;2023-01-28T06:53:54;0.50;99.90
32095;DHT22;18608;53.688;10.748;2023-01-28T06:56:20;0.40;99.90
32095;DHT22;18608;53.688;10.748;2023-01-28T06:58:45;0.50;99.90
32095;DHT22;18608;53.688;10.748;2023-01-28T07:01:11;0.50;99.90
32095;DHT22;18608;53.688;10.748;2023-01-28T07:03:36;0.30;99.90
32095;DHT22;18608;53.688;10.748;2023-01-28T07:06:02;0.30;99.90
32095;DHT22;18608;53.688;10.748;2023-01-28T07:08:28;0.40;99.90
32095;DHT22;18608;53.688;10.748;2023-01-28T07:10:53;0.30;99.90
32095;DHT22;18608;53.688;10.748;2023-01-28T07:13:19;0.30;99.90
32095;DHT22;18608;53.688;10.748;2023-01-28T07:15:44;0.30;99.90
32095;DHT22;18608;53.688;10.748;2023-01-28T07:18:10;0.30;99.90
32095;DHT22;18608;53.688;10.748;2023-01-28T07:20:36;0.10;99.90
32095;DHT22;18608;53.688;10.748;2023-01-28T07:23:02;-0.10;99.90
32095;DHT22;18608;53.688;10.748;2023-01-28T07:25:27;-0.10;99.90
32095;DHT22;18608;53.688;10.748;2023-01-28T07:27:53;-0.30;99.90
32095;DHT22;18608;53.688;10.748;2023-01-28T07:30:19;-0.40;99.90
32095;DHT22;18608;53.688;10.748;2023-01-28T07:32:45;-0.30;99.90
32095;DHT22;18608;53.688;10.748;2023-01-28T07:35:12;-0.10;99.90
32095;DHT22;18608;53.688;10.748;2023-01-28T07:37:38;-0.30;99.90
32095;DHT22;18608;53.688;10.748;2023-01-28T07:40:04;-0.30;99.90
32095;DHT22;18608;53.688;10.748;2023-01-28T07:42:30;-0.20;99.90
32095;DHT22;18608;53.688;10.748;2023-01-28T07:44:56;-0.30;99.90
32095;DHT22;18608;53.688;10.748;2023-01-28T07:47:21;-0.20;99.90
32095;DHT22;18608;53.688;10.748;2023-01-28T07:49:47;-0.20;99.90
32095;DHT22;18608;53.688;10.748;2023-01-28T07:52:12;-0.20;99.90
32095;DHT22;18608;53.688;10.748;2023-01-28T07:54:38;-0.10;99.90
32095;DHT22;18608;53.688;10.748;2023-01-28T07:57:07;-0.10;99.90
32095;DHT22;18608;53.688;10.748;2023-01-28T07:59:36;-0.10;99.90
32095;DHT22;18608;53.688;10.748;2023-01-28T08:02:01;-0.10;99.90
32095;DHT22;18608;53.688;10.748;2023-01-28T08:04:27;-0.10;99.90
32095;DHT22;18608;53.688;10.748;2023-01-28T08:06:53;0.10;99.90
32095;DHT22;18608;53.688;10.748;2023-01-28T08:09:18;0.00;99.90
32095;DHT22;18608;53.688;10.748;2023-01-28T08:11:44;0.00;99.90
32095;DHT22;18608;53.688;10.748;2023-01-28T08:14:10;0.00;99.90
32095;DHT22;18608;53.688;10.748;2023-01-28T08:16:35;0.10;99.90
32095;DHT22;18608;53.688;10.748;2023-01-28T08:19:01;0.10;99.90
32095;DHT22;18608;53.688;10.748;2023-01-28T08:21:27;0.10;99.90
32095;DHT22;18608;53.688;10.748;2023-01-28T08:23:52;0.10;99.90
32095;DHT22;18608;53.688;10.748;2023-01-28T08:26:19;0.00;99.90
32095;DHT22;18608;53.688;10.748;2023-01-28T08:28:44;0.30;99.90
32095;DHT22;18608;53.688;10.748;2023-01-28T08:31:10;0.30;99.90
32095;DHT22;18608;53.688;10.748;2023-01-28T08:33:36;0.30;99.90
32095;DHT22;18608;53.688;10.748;2023-01-28T08:36:02;0.40;99.90
32095;DHT22;18608;53.688;10.748;2023-01-28T08:38:28;0.50;99.90
32095;DHT22;18608;53.688;10.748;2023-01-28T08:40:55;0.50;99.90
32095;DHT22;18608;53.688;10.748;2023-01-28T08:43:22;0.60;99.90
32095;DHT22;18608;53.688;10.748;2023-01-28T08:45:48;0.60;99.90
32095;DHT22;18608;53.688;10.748;2023-01-28T08:48:15;0.70;99.90
32095;DHT22;18608;53.688;10.748;2023-01-28T08:50:42;0.60;99.90
32095;DHT22;18608;53.688;10.748;2023-01-28T08:53:17;0.50;99.90
32095;DHT22;18608;53.688;10.748;2023-01-28T08:55:43;0.50;99.90
32095;DHT22;18608;53.688;10.748;2023-01-28T08:58:11;0.50;99.90
32095;DHT22;18608;53.688;10.748;2023-01-28T09:00:38;0.50;99.90
32095;DHT22;18608;53.688;10.748;2023-01-28T09:03:04;0.50;99.90
32095;DHT22;18608;53.688;10.748;2023-01-28T09:05:30;0.60;99.90
32095;DHT22;18608;53.688;10.748;2023-01-28T09:08:02;0.60;99.90
32095;DHT22;18608;53.688;10.748;2023-01-28T09:10:28;0.60;99.90
32095;DHT22;18608;53.688;10.748;2023-01-28T09:12:53;0.60;99.90
32095;DHT22;18608;53.688;10.748;2023-01-28T09:15:19;0.90;99.90
32095;DHT22;18608;53.688;10.748;2023-01-28T09:17:44;0.90;99.90
32095;DHT22;18608;53.688;10.748;2023-01-28T09:20:10;0.90;99.90
32095;DHT22;18608;53.688;10.748;2023-01-28T09:22:37;0.70;99.90
32095;DHT22;18608;53.688;10.748;2023-01-28T09:25:03;0.70;99.90
32095;DHT22;18608;53.688;10.748;2023-01-28T09:27:29;0.80;99.90
32095;DHT22;18608;53.688;10.748;2023-01-28T09:29:54;0.70;99.90
32095;DHT22;18608;53.688;10.748;2023-01-28T09:32:20;0.60;99.90
32095;DHT22;18608;53.688;10.748;2023-01-28T09:34:45;0.50;99.90
32095;DHT22;18608;53.688;10.748;2023-01-28T09:37:11;0.50;99.90
32095;DHT22;18608;53.688;10.748;2023-01-28T09:39:37;0.60;99.90
32095;DHT22;18608;53.688;10.748;2023-01-28T09:42:18;0.60;99.90
32095;DHT22;18608;53.688;10.748;2023-01-28T09:50:06;0.60;99.90
32095;DHT22;18608;53.688;10.748;2023-01-28T09:52:40;0.50;99.90
32095;DHT22;18608;53.688;10.748;2023-01-28T09:57:53;0.50;99.90
32095;DHT22;18608;53.688;10.748;2023-01-28T10:00:34;0.60;99.90
32095;DHT22;18608;53.688;10.748;2023-01-28T10:06:22;1.00;99.90
32095;DHT22;18608;53.688;10.748;2023-01-28T10:12:51;-0.10;99.90
32095;DHT22;18608;53.688;10.748;2023-01-28T10:15:19;1.40;99.90
32095;DHT22;18608;53.688;10.748;2023-01-28T10:17:46;1.60;99.90
32095;DHT22;18608;53.688;10.748;2023-01-28T10:20:20;1.60;99.90
32095;DHT22;18608;53.688;10.748;2023-01-28T10:23:44;1.50;99.90
32095;DHT22;18608;53.688;10.748;2023-01-28T10:25:43;1.60;99.90
32095;DHT22;18608;53.688;10.748;2023-01-28T10:28:21;2.00;99.90
32095;DHT22;18608;53.688;10.748;2023-01-28T10:30:49;2.20;99.90
32095;DHT22;18608;53.688;10.748;2023-01-28T10:35:41;2.00;99.90
32095;DHT22;18608;53.688;10.748;2023-01-28T10:38:12;2.20;99.90
32095;DHT22;18608;53.688;10.748;2023-01-28T10:40:40;2.50;99.90
32095;DHT22;18608;53.688;10.748;2023-01-28T10:43:06;2.40;99.90
32095;DHT22;18608;53.688;10.748;2023-01-28T10:45:41;2.50;99.90
32095;DHT22;18608;53.688;10.748;2023-01-28T10:48:17;2.40;99.90
32095;DHT22;18608;53.688;10.748;2023-01-28T10:50:53;2.50;99.90
32095;DHT22;18608;53.688;10.748;2023-01-28T10:53:39;2.40;99.90
32095;DHT22;18608;53.688;10.748;2023-01-28T10:56:07;2.50;99.90
32095;DHT22;18608;53.688;10.748;2023-01-28T10:58:36;2.30;99.90
32095;DHT22;18608;53.688;10.748;2023-01-28T11:01:11;2.10;99.90
32095;DHT22;18608;53.688;10.748;2023-01-28T11:03:37;1.90;99.90
32095;DHT22;18608;53.688;10.748;2023-01-28T11:06:04;1.90;99.90
32095;DHT22;18608;53.688;10.748;2023-01-28T11:08:30;2.10;99.90
32095;DHT22;18608;53.688;10.748;2023-01-28T11:10:56;2.20;99.90
32095;DHT22;18608;53.688;10.748;2023-01-28T11:13:24;2.30;99.90
32095;DHT22;18608;53.688;10.748;2023-01-28T11:16:05;2.30;99.90
32095;DHT22;18608;53.688;10.748;2023-01-28T11:18:39;2.30;99.90
32095;DHT22;18608;53.688;10.748;2023-01-28T11:21:30;2.30;99.90
32095;DHT22;18608;53.688;10.748;2023-01-28T11:23:59;2.40;99.90
32095;DHT22;18608;53.688;10.748;2023-01-28T11:26:28;2.50;99.90
32095;DHT22;18608;53.688;10.748;2023-01-28T11:28:55;2.80;99.90
32095;DHT22;18608;53.688;10.748;2023-01-28T11:31:22;2.90;99.90
32095;DHT22;18608;53.688;10.748;2023-01-28T11:33:54;2.80;99.90
32095;DHT22;18608;53.688;10.748;2023-01-28T11:36:26;2.70;99.90
32095;DHT22;18608;53.688;10.748;2023-01-28T11:38:53;2.80;99.90
32095;DHT22;18608;53.688;10.748;2023-01-28T11:41:29;2.70;99.90
32095;DHT22;18608;53.688;10.748;2023-01-28T11:43:56;3.80;99.90
32095;DHT22;18608;53.688;10.748;2023-01-28T11:49:21;2.80;99.90
32095;DHT22;18608;53.688;10.748;2023-01-28T11:54:38;2.60;99.90
32095;DHT22;18608;53.688;10.748;2023-01-28T12:09:42;2.80;99.90
32095;DHT22;18608;53.688;10.748;2023-01-28T12:41:22;2.80;99.90
32095;DHT22;18608;53.688;10.748;2023-01-28T12:44:05;3.00;99.90
32095;DHT22;18608;53.688;10.748;2023-01-28T12:46:53;3.10;99.90
32095;DHT22;18608;53.688;10.748;2023-01-28T12:49:31;3.00;99.90
32095;DHT22;18608;53.688;10.748;2023-01-28T12:52:16;3.20;99.90
32095;DHT22;18608;53.688;10.748;2023-01-28T12:57:22;3.10;99.90
32095;DHT22;18608;53.688;10.748;2023-01-28T12:59:52;2.90;99.90
32095;DHT22;18608;53.688;10.748;2023-01-28T13:02:37;2.90;99.90
32095;DHT22;18608;53.688;10.748;2023-01-28T13:05:20;2.80;99.90
32095;DHT22;18608;53.688;10.748;2023-01-28T13:10:36;2.70;99.90
32095;DHT22;18608;53.688;10.748;2023-01-28T13:13:04;2.80;99.90
32095;DHT22;18608;53.688;10.748;2023-01-28T13:15:30;2.80;99.90
32095;DHT22;18608;53.688;10.748;2023-01-28T13:17:59;2.80;99.90
32095;DHT22;18608;53.688;10.748;2023-01-28T13:20:34;2.80;99.90
32095;DHT22;18608;53.688;10.748;2023-01-28T13:23:03;2.80;99.90
32095;DHT22;18608;53.688;10.748;2023-01-28T13:25:32;2.90;99.90
32095;DHT22;18608;53.688;10.748;2023-01-28T13:28:03;2.80;99.90
32095;DHT22;18608;53.688;10.748;2023-01-28T13:30:34;2.70;99.90
32095;DHT22;18608;53.688;10.748;2023-01-28T13:33:29;2.60;99.90
32095;DHT22;18608;53.688;10.748;2023-01-28T13:35:55;2.60;99.90
32095;DHT22;18608;53.688;10.748;2023-01-28T13:38:21;2.60;99.90
32095;DHT22;18608;53.688;10.748;2023-01-28T13:40:57;2.60;99.90
32095;DHT22;18608;53.688;10.748;2023-01-28T13:43:34;2.70;99.90
32095;DHT22;18608;53.688;10.748;2023-01-28T13:46:09;2.70;99.90
32095;DHT22;18608;53.688;10.748;2023-01-28T13:48:54;2.70;99.90
32095;DHT22;18608;53.688;10.748;2023-01-28T13:54:04;2.70;99.90
32095;DHT22;18608;53.688;10.748;2023-01-28T13:59:19;2.80;99.90
32095;DHT22;18608;53.688;10.748;2023-01-28T14:07:54;2.60;99.90
32095;DHT22;18608;53.688;10.748;2023-01-28T14:10:37;2.50;99.90
32095;DHT22;18608;53.688;10.748;2023-01-28T14:13:35;2.60;99.90
32095;DHT22;18608;53.688;10.748;2023-01-28T14:18:59;2.60;99.90
32095;DHT22;18608;53.688;10.748;2023-01-28T14:21:26;2.60;99.90
32095;DHT22;18608;53.688;10.748;2023-01-28T14:23:55;2.60;99.90
32095;DHT22;18608;53.688;10.748;2023-01-28T14:32:11;2.60;99.90
32095;DHT22;18608;53.688;10.748;2023-01-28T14:34:40;2.60;99.90
32095;DHT22;18608;53.688;10.748;2023-01-28T14:37:12;2.60;99.90
32095;DHT22;18608;53.688;10.748;2023-01-28T14:39:49;2.60;99.90
32095;DHT22;18608;53.688;10.748;2023-01-28T14:42:39;2.50;99.90
32095;DHT22;18608;53.688;10.748;2023-01-28T14:47:51;2.40;99.90
32095;DHT22;18608;53.688;10.748;2023-01-28T14:55:58;2.50;99.90
32095;DHT22;18608;53.688;10.748;2023-01-28T14:58:31;2.50;99.90
32095;DHT22;18608;53.688;10.748;2023-01-28T15:00:59;2.50;99.90
32095;DHT22;18608;53.688;10.748;2023-01-28T15:03:28;2.40;99.90
32095;DHT22;18608;53.688;10.748;2023-01-28T15:06:05;2.40;99.90
32095;DHT22;18608;53.688;10.748;2023-01-28T15:08:31;2.30;99.90
32095;DHT22;18608;53.688;10.748;2023-01-28T15:10:58;2.30;99.90
32095;DHT22;18608;53.688;10.748;2023-01-28T15:13:28;2.20;99.90
32095;DHT22;18608;53.688;10.748;2023-01-28T15:15:54;2.20;99.90
32095;DHT22;18608;53.688;10.748;2023-01-28T15:18:31;2.20;99.90
32095;DHT22;18608;53.688;10.748;2023-01-28T15:20:57;2.20;99.90
32095;DHT22;18608;53.688;10.748;2023-01-28T15:23:30;2.20;99.90
32095;DHT22;18608;53.688;10.748;2023-01-28T15:25:57;2.20;99.90
32095;DHT22;18608;53.688;10.748;2023-01-28T15:28:31;2.20;99.90
32095;DHT22;18608;53.688;10.748;2023-01-28T15:30:57;2.10;99.90
32095;DHT22;18608;53.688;10.748;2023-01-28T15:33:26;2.20;99.90
32095;DHT22;18608;53.688;10.748;2023-01-28T15:35:54;2.20;99.90
32095;DHT22;18608;53.688;10.748;2023-01-28T15:38:20;2.20;99.90
32095;DHT22;18608;53.688;10.748;2023-01-28T15:40:53;2.10;99.90
32095;DHT22;18608;53.688;10.748;2023-01-28T15:43:28;2.10;99.90
32095;DHT22;18608;53.688;10.748;2023-01-28T15:45:55;2.10;99.90
32095;DHT22;18608;53.688;10.748;2023-01-28T15:48:23;2.00;99.90
32095;DHT22;18608;53.688;10.748;2023-01-28T15:50:58;2.00;99.90
32095;DHT22;18608;53.688;10.748;2023-01-28T15:53:25;2.00;99.90
32095;DHT22;18608;53.688;10.748;2023-01-28T15:56:03;1.90;99.90
32095;DHT22;18608;53.688;10.748;2023-01-28T15:58:30;1.90;99.90
32095;DHT22;18608;53.688;10.748;2023-01-28T16:01:13;1.80;99.90
32095;DHT22;18608;53.688;10.748;2023-01-28T16:03:42;1.80;99.90
32095;DHT22;18608;53.688;10.748;2023-01-28T16:06:12;1.70;99.90
32095;DHT22;18608;53.688;10.748;2023-01-28T16:08:41;1.70;99.90
32095;DHT22;18608;53.688;10.748;2023-01-28T16:11:10;1.70;99.90
32095;DHT22;18608;53.688;10.748;2023-01-28T16:13:41;1.60;99.90
32095;DHT22;18608;53.688;10.748;2023-01-28T16:16:08;1.60;99.90
32095;DHT22;18608;53.688;10.748;2023-01-28T16:21:06;1.60;99.90
32095;DHT22;18608;53.688;10.748;2023-01-28T16:23:33;1.60;99.90
32095;DHT22;18608;53.688;10.748;2023-01-28T16:26:18;1.60;99.90
32095;DHT22;18608;53.688;10.748;2023-01-28T16:28:45;1.70;99.90
32095;DHT22;18608;53.688;10.748;2023-01-28T16:31:11;2.20;99.90
32095;DHT22;18608;53.688;10.748;2023-01-28T16:33:36;1.70;99.90
32095;DHT22;18608;53.688;10.748;2023-01-28T16:36:02;1.70;99.90
32095;DHT22;18608;53.688;10.748;2023-01-28T16:38:28;1.70;99.90
32095;DHT22;18608;53.688;10.748;2023-01-28T16:40:54;1.60;99.90
32095;DHT22;18608;53.688;10.748;2023-01-28T16:43:20;1.60;99.90
32095;DHT22;18608;53.688;10.748;2023-01-28T16:45:45;1.60;99.90
32095;DHT22;18608;53.688;10.748;2023-01-28T16:48:11;1.70;99.90
32095;DHT22;18608;53.688;10.748;2023-01-28T16:50:39;1.70;99.90
32095;DHT22;18608;53.688;10.748;2023-01-28T16:53:16;1.60;99.90
32095;DHT22;18608;53.688;10.748;2023-01-28T16:55:42;1.60;99.90
32095;DHT22;18608;53.688;10.748;2023-01-28T16:58:08;1.60;99.90
32095;DHT22;18608;53.688;10.748;2023-01-28T17:00:34;1.60;99.90
32095;DHT22;18608;53.688;10.748;2023-01-28T17:03:01;1.60;99.90
32095;DHT22;18608;53.688;10.748;2023-01-28T17:05:26;1.60;99.90
32095;DHT22;18608;53.688;10.748;2023-01-28T17:07:52;1.60;99.90
32095;DHT22;18608;53.688;10.748;2023-01-28T17:10:20;1.60;99.90
32095;DHT22;18608;53.688;10.748;2023-01-28T17:12:49;1.60;99.90
32095;DHT22;18608;53.688;10.748;2023-01-28T17:15:15;1.60;99.90
32095;DHT22;18608;53.688;10.748;2023-01-28T17:17:40;1.50;99.90
32095;DHT22;18608;53.688;10.748;2023-01-28T17:20:06;1.90;99.90
32095;DHT22;18608;53.688;10.748;2023-01-28T17:22:32;1.50;99.90
32095;DHT22;18608;53.688;10.748;2023-01-28T17:24:57;1.50;99.90
32095;DHT22;18608;53.688;10.748;2023-01-28T17:27:23;1.50;99.90
32095;DHT22;18608;53.688;10.748;2023-01-28T17:29:48;1.50;99.90
32095;DHT22;18608;53.688;10.748;2023-01-28T17:32:16;1.50;99.90
32095;DHT22;18608;53.688;10.748;2023-01-28T17:34:41;1.50;99.90
32095;DHT22;18608;53.688;10.748;2023-01-28T17:37:07;1.50;99.90
32095;DHT22;18608;53.688;10.748;2023-01-28T17:39:32;1.50;99.90
32095;DHT22;18608;53.688;10.748;2023-01-28T17:41:58;1.50;99.90
32095;DHT22;18608;53.688;10.748;2023-01-28T17:44:24;1.50;99.90
32095;DHT22;18608;53.688;10.748;2023-01-28T17:46:49;1.40;99.90